Language selection

My Weather Profile Weather Topics  | 

Northumberland Strait - eastern half: Past 24 Hour Conditions

 

West Chedabucto Bay - 44489

11:00 PM ADT 19 August 2022Buoy position: 45.49N 61.14W
Disclaimer

This table is a summary of hourly weather conditions for the past 24 hours.
Please note that these observations might not always be representative of weather conditions over their associated marine area.

Date / Time
(ADT)
Wind(knots) Wave height(m) Wave period(s) Pressure(kPa) Air tempC) Water tempC)
19 August 2022
23:00 WSW 12 gust 15 0.3 2.8 101.3 20 20
22:00 SW 8 gust 10 0.3 2.8 101.3 20 20
21:00 SW 10 gust 12 0.3 2.6 101.2 20 20
20:00 WSW 5 gust 10 0.3 2.7 101.2 22 20
19:00 SW 5 gust 8 0.2 4.1 101.1 22 20
18:00 W 6 gust 10 0.3 2.8 101.0 22 20
17:00 W 11 gust 14 0.4 2.6 101.0 23 20
16:00 WSW 12 gust 15 0.4 2.8 101.0 22 20
15:00 W 8 gust 12 0.4 2.7 100.9 22 20
14:00 WSW 13 gust 16 0.4 2.9 100.9 21 20
13:00 SW 12 gust 13 0.4 3.0 100.9 21 20
12:00 SW 12 gust 15 0.5 2.9 100.9 21 20
11:00 WSW 10 gust 12 0.6 3.2 101.0 20 20
10:00 SW 15 gust 17 0.6 3.2 100.9 20 20
9:00 SW 17 gust 21 0.6 3.1 100.9 20 20
8:00 SW 15 gust 17 0.6 3.1 101.0 19 20
7:00 SW 16 gust 20 0.6 3.0 101.0 19 20
6:00 SSW 16 gust 19 0.6 3.0 101.0 19 20
5:00 SSW 15 gust 18 0.5 3.1 101.0 19 20
4:00 SSW 15 gust 19 0.6 3.0 101.0 19 20
3:00 SSW 16 gust 20 0.6 3.1 101.0 19 20
2:00 SSW 16 gust 22 0.4 3.8 101.0 19 20
1:00 SSW 13 gust 15 0.4 4.7 101.1 19 20
0:00 SW 8 gust 10 0.4 5.1 101.1 19 20
18 August 2022
23:00 SW 12 gust 13 0.4 3.9 101.1 19 20

Zoom-in to make a selection

Map of Atlantic - Newfoundland marine weather areas Banquereau - 44139 East Chedabucto Bay - 44488 West Chedabucto Bay - 44489 Blanc-Sablon Airport Cap Whittle Chevery Natashquan Airport Heath Point Îles de la Madeleine Airport Miscou Island Eskasoni (First Nations) Grand Étang Ingonish Beach North Mountain St.Paul Island J.A. Douglas McCurdy Sydney Airport Charlottetown Airport East Point North Cape Argentia Berry Hill Bonavista Burgeo Cape Race Corner Brook Daniel's Harbour Englee Ferolle Point La Scie Port aux Basques Sagona Island St. Anthony Airport St. John's Int'l Airport St. Lawrence Stephenville Airport Twillingate Winterland Branch Hill Wreckhouse Grates Cove Pool's Island Marticot Island Long Pond Cartwright Airport Mary's Harbour
Legend:
buoy Buoy
land station Land Station

Atlantic - Newfoundland Area

Another Region

What we are doing

Features

WeatherCAN app: set custom notifications

Learn how to set custom Air Quality Health Index notifications on the WeatherCAN app

Are you prepared for summer severe weather?

We have information to help you stay safe

Date modified: